sensor_id;sensor_type;location;lat;lon;timestamp;P1;durP1;ratioP1;P2;durP2;ratioP2
23768;SDS011;12064;50.890;5.424;2023-06-24T00:01:30;5.50;;;4.97;;
23768;SDS011;12064;50.890;5.424;2023-06-24T00:10:21;5.68;;;4.53;;
23768;SDS011;12064;50.890;5.424;2023-06-24T00:19:12;5.38;;;4.82;;
23768;SDS011;12064;50.890;5.424;2023-06-24T00:28:03;5.22;;;4.72;;
23768;SDS011;12064;50.890;5.424;2023-06-24T00:36:53;5.80;;;4.68;;
23768;SDS011;12064;50.890;5.424;2023-06-24T00:45:44;6.55;;;5.60;;
23768;SDS011;12064;50.890;5.424;2023-06-24T00:54:39;5.30;;;4.78;;
23768;SDS011;12064;50.890;5.424;2023-06-24T01:03:30;6.50;;;4.70;;
23768;SDS011;12064;50.890;5.424;2023-06-24T01:12:21;4.90;;;4.50;;
23768;SDS011;12064;50.890;5.424;2023-06-24T01:21:18;6.00;;;5.13;;
23768;SDS011;12064;50.890;5.424;2023-06-24T01:49:32;7.65;;;6.13;;
23768;SDS011;12064;50.890;5.424;2023-06-24T01:58:28;8.63;;;6.30;;
23768;SDS011;12064;50.890;5.424;2023-06-24T02:07:21;7.03;;;6.30;;
23768;SDS011;12064;50.890;5.424;2023-06-24T02:16:13;9.68;;;6.25;;
23768;SDS011;12064;50.890;5.424;2023-06-24T02:25:06;7.00;;;6.30;;
23768;SDS011;12064;50.890;5.424;2023-06-24T02:33:58;6.93;;;6.22;;
23768;SDS011;12064;50.890;5.424;2023-06-24T02:42:49;6.93;;;6.33;;
23768;SDS011;12064;50.890;5.424;2023-06-24T02:51:40;6.70;;;5.75;;
23768;SDS011;12064;50.890;5.424;2023-06-24T03:00:31;7.38;;;6.65;;
23768;SDS011;12064;50.890;5.424;2023-06-24T03:09:23;8.25;;;6.65;;
23768;SDS011;12064;50.890;5.424;2023-06-24T03:18:15;8.57;;;6.93;;
23768;SDS011;12064;50.890;5.424;2023-06-24T03:27:06;9.57;;;6.60;;
23768;SDS011;12064;50.890;5.424;2023-06-24T03:35:57;7.93;;;7.13;;
23768;SDS011;12064;50.890;5.424;2023-06-24T03:44:48;7.28;;;6.55;;
23768;SDS011;12064;50.890;5.424;2023-06-24T03:53:38;7.10;;;6.38;;
23768;SDS011;12064;50.890;5.424;2023-06-24T04:02:29;7.82;;;6.25;;
23768;SDS011;12064;50.890;5.424;2023-06-24T04:11:20;8.57;;;6.80;;
23768;SDS011;12064;50.890;5.424;2023-06-24T04:20:10;8.02;;;6.30;;
23768;SDS011;12064;50.890;5.424;2023-06-24T04:29:01;8.70;;;6.10;;
23768;SDS011;12064;50.890;5.424;2023-06-24T04:37:52;7.63;;;5.80;;
23768;SDS011;12064;50.890;5.424;2023-06-24T04:46:43;6.72;;;5.57;;
23768;SDS011;12064;50.890;5.424;2023-06-24T04:55:33;6.45;;;5.85;;
23768;SDS011;12064;50.890;5.424;2023-06-24T05:04:24;4.80;;;4.30;;
23768;SDS011;12064;50.890;5.424;2023-06-24T05:13:18;6.07;;;5.45;;
23768;SDS011;12064;50.890;5.424;2023-06-24T05:22:09;6.87;;;5.53;;
23768;SDS011;12064;50.890;5.424;2023-06-24T05:30:59;7.40;;;4.78;;
23768;SDS011;12064;50.890;5.424;2023-06-24T05:39:50;7.40;;;4.50;;
23768;SDS011;12064;50.890;5.424;2023-06-24T05:48:41;6.57;;;4.68;;
23768;SDS011;12064;50.890;5.424;2023-06-24T05:57:32;6.50;;;4.18;;
23768;SDS011;12064;50.890;5.424;2023-06-24T06:06:22;5.53;;;4.07;;
23768;SDS011;12064;50.890;5.424;2023-06-24T06:15:13;4.70;;;3.80;;
23768;SDS011;12064;50.890;5.424;2023-06-24T06:24:04;5.50;;;3.95;;
23768;SDS011;12064;50.890;5.424;2023-06-24T06:32:55;6.20;;;4.05;;
23768;SDS011;12064;50.890;5.424;2023-06-24T06:41:46;6.17;;;3.80;;
23768;SDS011;12064;50.890;5.424;2023-06-24T06:50:36;7.03;;;4.20;;
23768;SDS011;12064;50.890;5.424;2023-06-24T06:59:27;4.10;;;3.60;;
23768;SDS011;12064;50.890;5.424;2023-06-24T07:08:18;4.60;;;3.22;;
23768;SDS011;12064;50.890;5.424;2023-06-24T07:17:08;4.57;;;3.20;;
23768;SDS011;12064;50.890;5.424;2023-06-24T07:25:59;4.63;;;3.10;;
23768;SDS011;12064;50.890;5.424;2023-06-24T07:34:49;4.03;;;2.58;;
23768;SDS011;12064;50.890;5.424;2023-06-24T07:43:40;3.03;;;2.80;;
23768;SDS011;12064;50.890;5.424;2023-06-24T07:52:32;2.83;;;2.57;;
23768;SDS011;12064;50.890;5.424;2023-06-24T08:01:23;3.40;;;2.60;;
23768;SDS011;12064;50.890;5.424;2023-06-24T08:10:14;2.47;;;2.25;;
23768;SDS011;12064;50.890;5.424;2023-06-24T08:19:05;3.30;;;2.30;;
23768;SDS011;12064;50.890;5.424;2023-06-24T08:27:55;2.73;;;2.30;;
23768;SDS011;12064;50.890;5.424;2023-06-24T08:36:46;3.35;;;2.70;;
23768;SDS011;12064;50.890;5.424;2023-06-24T08:45:37;3.70;;;2.53;;
23768;SDS011;12064;50.890;5.424;2023-06-24T08:54:28;2.88;;;2.58;;
23768;SDS011;12064;50.890;5.424;2023-06-24T09:03:20;2.95;;;2.55;;
23768;SDS011;12064;50.890;5.424;2023-06-24T09:12:12;2.60;;;2.40;;
23768;SDS011;12064;50.890;5.424;2023-06-24T09:21:04;2.55;;;2.35;;
23768;SDS011;12064;50.890;5.424;2023-06-24T09:29:55;3.08;;;2.28;;
23768;SDS011;12064;50.890;5.424;2023-06-24T09:38:46;3.42;;;2.25;;
23768;SDS011;12064;50.890;5.424;2023-06-24T09:47:37;2.50;;;2.30;;
23768;SDS011;12064;50.890;5.424;2023-06-24T09:56:28;2.53;;;2.33;;
23768;SDS011;12064;50.890;5.424;2023-06-24T10:05:20;2.58;;;2.15;;
23768;SDS011;12064;50.890;5.424;2023-06-24T10:14:11;2.60;;;2.40;;
23768;SDS011;12064;50.890;5.424;2023-06-24T10:23:05;2.35;;;2.15;;
23768;SDS011;12064;50.890;5.424;2023-06-24T10:31:56;2.13;;;1.92;;
23768;SDS011;12064;50.890;5.424;2023-06-24T10:40:53;2.40;;;2.20;;
23768;SDS011;12064;50.890;5.424;2023-06-24T10:49:44;2.63;;;2.42;;
23768;SDS011;12064;50.890;5.424;2023-06-24T10:58:35;2.40;;;1.92;;
23768;SDS011;12064;50.890;5.424;2023-06-24T11:07:30;2.10;;;2.00;;
23768;SDS011;12064;50.890;5.424;2023-06-24T11:16:24;3.20;;;2.10;;
23768;SDS011;12064;50.890;5.424;2023-06-24T11:25:19;2.10;;;2.00;;
23768;SDS011;12064;50.890;5.424;2023-06-24T11:34:11;2.17;;;2.08;;
23768;SDS011;12064;50.890;5.424;2023-06-24T11:43:02;2.30;;;2.17;;
23768;SDS011;12064;50.890;5.424;2023-06-24T11:51:53;2.30;;;2.10;;
23768;SDS011;12064;50.890;5.424;2023-06-24T12:00:44;2.17;;;1.73;;
23768;SDS011;12064;50.890;5.424;2023-06-24T12:09:37;3.63;;;2.03;;
23768;SDS011;12064;50.890;5.424;2023-06-24T12:18:28;2.05;;;1.85;;
23768;SDS011;12064;50.890;5.424;2023-06-24T12:27:19;2.00;;;1.90;;
23768;SDS011;12064;50.890;5.424;2023-06-24T12:36:10;2.70;;;2.03;;
23768;SDS011;12064;50.890;5.424;2023-06-24T12:45:00;2.17;;;2.07;;
23768;SDS011;12064;50.890;5.424;2023-06-24T12:53:51;2.05;;;1.95;;
23768;SDS011;12064;50.890;5.424;2023-06-24T13:02:42;1.95;;;1.85;;
23768;SDS011;12064;50.890;5.424;2023-06-24T13:11:33;2.10;;;1.90;;
23768;SDS011;12064;50.890;5.424;2023-06-24T13:20:24;1.70;;;1.60;;
23768;SDS011;12064;50.890;5.424;2023-06-24T13:29:15;2.27;;;2.07;;
23768;SDS011;12064;50.890;5.424;2023-06-24T13:38:06;1.70;;;1.60;;
23768;SDS011;12064;50.890;5.424;2023-06-24T13:46:57;1.80;;;1.70;;
23768;SDS011;12064;50.890;5.424;2023-06-24T13:55:48;2.00;;;1.90;;
23768;SDS011;12064;50.890;5.424;2023-06-24T14:04:39;1.90;;;1.80;;
23768;SDS011;12064;50.890;5.424;2023-06-24T14:13:29;1.90;;;1.80;;
23768;SDS011;12064;50.890;5.424;2023-06-24T14:22:21;1.80;;;1.70;;
23768;SDS011;12064;50.890;5.424;2023-06-24T14:31:12;2.10;;;2.00;;
23768;SDS011;12064;50.890;5.424;2023-06-24T14:40:03;1.92;;;1.83;;
23768;SDS011;12064;50.890;5.424;2023-06-24T14:48:54;1.88;;;1.77;;
23768;SDS011;12064;50.890;5.424;2023-06-24T14:57:45;1.80;;;1.70;;
23768;SDS011;12064;50.890;5.424;2023-06-24T15:06:36;1.87;;;1.77;;
23768;SDS011;12064;50.890;5.424;2023-06-24T15:15:27;9.67;;;8.10;;
23768;SDS011;12064;50.890;5.424;2023-06-24T15:24:20;24.92;;;20.40;;
23768;SDS011;12064;50.890;5.424;2023-06-24T15:33:11;50.72;;;40.05;;
23768;SDS011;12064;50.890;5.424;2023-06-24T15:42:03;61.67;;;47.78;;
23768;SDS011;12064;50.890;5.424;2023-06-24T15:50:53;91.00;;;69.75;;
23768;SDS011;12064;50.890;5.424;2023-06-24T15:59:44;105.20;;;83.53;;
23768;SDS011;12064;50.890;5.424;2023-06-24T16:08:35;130.93;;;104.43;;
23768;SDS011;12064;50.890;5.424;2023-06-24T16:17:25;160.60;;;125.67;;
23768;SDS011;12064;50.890;5.424;2023-06-24T16:26:16;180.10;;;143.23;;
23768;SDS011;12064;50.890;5.424;2023-06-24T16:35:07;198.70;;;155.57;;
23768;SDS011;12064;50.890;5.424;2023-06-24T16:44:00;224.18;;;185.65;;
23768;SDS011;12064;50.890;5.424;2023-06-24T16:52:50;253.90;;;218.02;;
23768;SDS011;12064;50.890;5.424;2023-06-24T17:01:49;269.85;;;228.88;;
23768;SDS011;12064;50.890;5.424;2023-06-24T17:10:39;291.25;;;251.32;;
23768;SDS011;12064;50.890;5.424;2023-06-24T17:19:30;313.20;;;269.08;;
23768;SDS011;12064;50.890;5.424;2023-06-24T17:28:21;326.50;;;289.50;;
23768;SDS011;12064;50.890;5.424;2023-06-24T17:37:12;331.42;;;290.10;;
23768;SDS011;12064;50.890;5.424;2023-06-24T17:46:02;366.17;;;319.73;;
23768;SDS011;12064;50.890;5.424;2023-06-24T17:54:53;384.20;;;333.90;;
23768;SDS011;12064;50.890;5.424;2023-06-24T18:03:43;410.67;;;351.57;;
23768;SDS011;12064;50.890;5.424;2023-06-24T18:12:39;406.48;;;356.13;;
23768;SDS011;12064;50.890;5.424;2023-06-24T18:21:30;427.88;;;370.77;;
23768;SDS011;12064;50.890;5.424;2023-06-24T18:30:21;420.20;;;366.27;;
23768;SDS011;12064;50.890;5.424;2023-06-24T18:39:12;427.40;;;363.93;;
23768;SDS011;12064;50.890;5.424;2023-06-24T18:48:02;420.67;;;371.17;;
23768;SDS011;12064;50.890;5.424;2023-06-24T18:56:55;420.80;;;366.77;;
23768;SDS011;12064;50.890;5.424;2023-06-24T19:05:46;421.20;;;366.73;;
23768;SDS011;12064;50.890;5.424;2023-06-24T19:14:37;407.42;;;360.52;;
23768;SDS011;12064;50.890;5.424;2023-06-24T19:23:29;409.20;;;360.98;;
23768;SDS011;12064;50.890;5.424;2023-06-24T19:32:20;408.27;;;363.40;;
23768;SDS011;12064;50.890;5.424;2023-06-24T19:41:11;415.35;;;368.65;;
23768;SDS011;12064;50.890;5.424;2023-06-24T19:50:01;398.48;;;354.63;;
23768;SDS011;12064;50.890;5.424;2023-06-24T19:58:55;405.45;;;361.40;;
23768;SDS011;12064;50.890;5.424;2023-06-24T20:07:47;391.98;;;349.23;;
23768;SDS011;12064;50.890;5.424;2023-06-24T20:16:38;110.85;;;96.03;;
23768;SDS011;12064;50.890;5.424;2023-06-24T20:25:28;39.03;;;32.72;;
23768;SDS011;12064;50.890;5.424;2023-06-24T20:34:19;11.63;;;10.18;;
23768;SDS011;12064;50.890;5.424;2023-06-24T20:43:10;7.47;;;5.57;;
23768;SDS011;12064;50.890;5.424;2023-06-24T20:52:01;5.63;;;3.93;;
23768;SDS011;12064;50.890;5.424;2023-06-24T21:00:52;5.78;;;3.70;;
23768;SDS011;12064;50.890;5.424;2023-06-24T21:09:43;3.45;;;3.05;;
23768;SDS011;12064;50.890;5.424;2023-06-24T21:18:33;3.92;;;3.28;;
23768;SDS011;12064;50.890;5.424;2023-06-24T21:27:24;4.87;;;3.30;;
23768;SDS011;12064;50.890;5.424;2023-06-24T21:36:15;3.90;;;3.55;;
23768;SDS011;12064;50.890;5.424;2023-06-24T21:45:07;6.05;;;3.97;;
23768;SDS011;12064;50.890;5.424;2023-06-24T21:53:58;5.03;;;3.55;;
23768;SDS011;12064;50.890;5.424;2023-06-24T22:02:49;5.38;;;4.88;;
23768;SDS011;12064;50.890;5.424;2023-06-24T22:11:40;5.10;;;4.60;;
23768;SDS011;12064;50.890;5.424;2023-06-24T22:20:31;4.97;;;4.38;;
23768;SDS011;12064;50.890;5.424;2023-06-24T22:29:22;5.68;;;4.75;;
23768;SDS011;12064;50.890;5.424;2023-06-24T22:38:12;4.97;;;4.47;;
23768;SDS011;12064;50.890;5.424;2023-06-24T22:47:03;4.68;;;4.15;;
23768;SDS011;12064;50.890;5.424;2023-06-24T22:55:54;4.80;;;4.40;;
23768;SDS011;12064;50.890;5.424;2023-06-24T23:04:44;4.47;;;4.07;;
23768;SDS011;12064;50.890;5.424;2023-06-24T23:13:35;5.35;;;3.92;;
23768;SDS011;12064;50.890;5.424;2023-06-24T23:22:26;4.50;;;4.10;;
23768;SDS011;12064;50.890;5.424;2023-06-24T23:31:17;4.72;;;4.15;;
23768;SDS011;12064;50.890;5.424;2023-06-24T23:40:11;5.13;;;3.70;;
23768;SDS011;12064;50.890;5.424;2023-06-24T23:49:02;4.85;;;3.80;;
23768;SDS011;12064;50.890;5.424;2023-06-24T23:57:53;4.28;;;3.88;;
